Hovedside
METAR-TAF:

METAR-TAF

Lufthavner :

Basseterre, Saint Kitts og Nevis

breddegrad: 17-18N, lengdegrad: 062-41W, høyde over havet: 48 m

Gjeldene værobservasjon

Denne rapporten ble laget for 1 time og 2 minutter siden, klokken 13:00 UTC
Vind 11 kt fra Øst-nordøst
Temperatur 30°C
Luftfuktighet 79%
Trykk 1017 hPa
Sikt 10 km eller mer
Få skyer i en høyde av 2000 ft

METAR: TKPK 191300Z 06011KT 9999 FEW020 30/26 Q1017

Tid: 10:02 (14:02 UTC)

Varsel

Denne rapporten ble laget for 3 timer og 2 minutter siden, klokken 11:00 UTC
Varsel gyldig fra 19. klokken 12 UTC til 20. klokken 12 UTC
Vind 9 kt fra Øst-sørøst
Sikt 10 km eller mer
Spredte skyer i en høyde av 2200 ft

TAF: TKPK 191100Z 1912/2012 11009KT 9999 SCT022

Værobservasjoner og værvarsel for over 4000 flyplasser (METAR- og TAF-rapporter).

Tilgjengelige stasjoner er representert av de røde og gule prikkene på kartet.

Hold musepekeren over prikken for å se navnet på stasjonen.

Klikk så for å se værobservasjoner og -varsler.

For å forandre kartet kan du klikke på den grønne knappen med svart kryss for å zoome inn, på den grønne knappen med strek for å zoome ut, eller på de grønne pilene for å se tilstøtende kart.


METAR-TAF: